Time;durP1;ratioP1;P1;durP2;ratioP2;P2;SDS_P1;SDS_P2;PMS_P1;PMS_P2;Temp;Humidity;BMP_temperature;BMP_pressure;BME280_temperature;BME280_humidity;BME280_pressure;Samples;Min_cycle;Max_cycle;Signal;HPM_P1;HPM_P2
2021/04/22 00:02:16;;;;;;;23.98;10.55;;;;;;;19.40;34.70;102322.25;5072279;28;20025;-76
2021/04/22 00:04:41;;;;;;;29.27;10.52;;;;;;;19.34;34.91;102320.81;5072224;28;20104;-77
2021/04/22 00:07:07;;;;;;;11.90;7.85;;;;;;;19.38;34.52;102318.19;5074924;28;20086;-76
2021/04/22 00:09:33;;;;;;;15.00;8.80;;;;;;;19.32;34.65;102320.34;5076185;28;20063;-77
2021/04/22 00:11:58;;;;;;;19.98;9.30;;;;;;;19.29;34.61;102326.56;5076066;28;20439;-77
2021/04/22 00:14:24;;;;;;;20.15;9.93;;;;;;;19.26;34.45;102321.66;5076053;28;20067;-76
2021/04/22 00:16:50;;;;;;;21.90;9.68;;;;;;;19.23;34.49;102327.06;5076061;28;20052;-76
2021/04/22 00:19:16;;;;;;;15.80;9.77;;;;;;;19.22;34.62;102326.25;5075955;28;20628;-76
2021/04/22 00:21:41;;;;;;;19.20;9.20;;;;;;;19.27;34.23;102328.84;5075868;28;20020;-76
2021/04/22 00:24:07;;;;;;;18.30;8.90;;;;;;;19.31;34.07;102329.78;5074576;28;20021;-76
2021/04/22 00:26:33;;;;;;;17.48;8.43;;;;;;;19.26;34.26;102329.97;5075735;28;20379;-76
2021/04/22 00:28:59;;;;;;;14.57;8.75;;;;;;;19.26;34.36;102335.50;5075437;28;20041;-76
2021/04/22 00:31:25;;;;;;;21.25;8.70;;;;;;;19.26;34.24;102329.16;5075636;28;20033;-77
2021/04/22 00:33:51;;;;;;;20.20;9.18;;;;;;;19.22;34.40;102334.56;5075721;28;20023;-76
2021/04/22 00:36:16;;;;;;;16.58;9.63;;;;;;;19.19;34.28;102335.22;5075616;28;20103;-76
2021/04/22 00:38:42;;;;;;;17.88;9.50;;;;;;;19.24;34.20;102343.38;5075524;28;20548;-77
2021/04/22 00:41:09;;;;;;;15.80;8.95;;;;;;;19.22;34.07;102339.31;5075551;28;20104;-76
2021/04/22 00:43:35;;;;;;;18.73;9.18;;;;;;;19.14;34.36;102340.97;5075426;28;20548;-77
2021/04/22 00:46:01;;;;;;;18.20;9.30;;;;;;;19.06;34.31;102342.63;5075425;28;20033;-77
2021/04/22 00:48:27;;;;;;;19.98;10.40;;;;;;;19.03;34.43;102350.78;5075281;28;20032;-76
2021/04/22 00:50:54;;;;;;;20.98;8.93;;;;;;;19.02;34.23;102349.16;5075301;28;20558;-77
2021/04/22 00:53:21;;;;;;;20.85;9.60;;;;;;;18.90;34.41;102346.28;5075310;28;20086;-76
2021/04/22 00:55:49;;;;;;;17.58;8.55;;;;;;;18.94;34.42;102348.03;5075270;28;20478;-76
2021/04/22 00:58:15;;;;;;;18.70;9.95;;;;;;;18.97;34.14;102347.41;5075024;28;20032;-77
2021/04/22 01:00:43;;;;;;;15.80;8.80;;;;;;;18.94;34.15;102342.50;5075217;28;20028;-77
2021/04/22 01:03:09;;;;;;;21.02;9.55;;;;;;;18.94;34.13;102350.00;5075151;28;20108;-76
2021/04/22 01:05:41;;;;;;;30.38;12.20;;;;;;;18.91;34.32;102345.13;5075082;28;20051;-77
2021/04/22 01:08:07;;;;;;;20.48;10.68;;;;;;;18.90;34.29;102343.50;5074962;28;20029;-77
2021/04/22 01:10:33;;;;;;;23.48;10.70;;;;;;;18.92;34.11;102344.81;5074937;28;20028;-77
2021/04/22 01:12:58;;;;;;;21.02;10.13;;;;;;;18.49;34.99;102340.13;5074903;28;20067;-77
2021/04/22 01:15:27;;;;;;;19.17;11.07;;;;;;;18.42;35.17;102344.53;5074740;28;20048;-78
2021/04/22 01:17:53;;;;;;;21.42;10.20;;;;;;;18.42;35.21;102350.91;5071751;28;20058;-77
2021/04/22 01:20:24;;;;;;;20.08;9.75;;;;;;;18.38;35.10;102352.69;5074776;28;20046;-77
2021/04/22 01:22:51;;;;;;;14.32;8.77;;;;;;;18.34;35.23;102353.66;5074704;28;20390;-76
2021/04/22 01:25:27;;;;;;;14.60;9.93;;;;;;;18.32;35.31;102347.66;5074780;28;20029;-77
2021/04/22 01:27:53;;;;;;;17.63;9.57;;;;;;;18.42;35.03;102347.31;5074449;28;20044;-76
2021/04/22 01:30:41;;;;;;;21.90;9.88;;;;;;;18.42;35.07;102350.06;5074552;28;20032;-76
2021/04/22 01:33:08;;;;;;;17.52;9.38;;;;;;;18.46;35.14;102351.06;5070381;28;20051;-76
2021/04/22 01:35:37;;;;;;;21.95;9.60;;;;;;;18.44;35.22;102356.09;5074496;28;20032;-76
2021/04/22 01:38:04;;;;;;;22.50;10.00;;;;;;;18.45;34.97;102355.78;5074480;28;20395;-77
2021/04/22 01:40:31;;;;;;;20.55;9.30;;;;;;;18.42;35.23;102350.06;5074439;28;20036;-76
2021/04/22 01:42:57;;;;;;;14.23;9.68;;;;;;;18.36;35.09;102356.91;5073123;28;20039;-76
2021/04/22 01:45:24;;;;;;;21.02;9.40;;;;;;;18.35;35.17;102366.38;5074325;28;20020;-76
2021/04/22 01:47:53;;;;;;;17.50;8.95;;;;;;;18.37;35.10;102361.34;5072973;28;20035;-76
2021/04/22 01:50:22;;;;;;;15.35;9.27;;;;;;;18.36;35.01;102366.03;5074248;28;20027;-76
2021/04/22 01:52:48;;;;;;;19.55;10.40;;;;;;;18.36;35.25;102357.72;5074172;28;20020;-76
2021/04/22 01:55:19;;;;;;;16.35;9.82;;;;;;;18.34;35.12;102362.78;5074144;28;20111;-76
2021/04/22 01:57:44;;;;;;;21.00;8.88;;;;;;;18.33;35.06;102354.81;5074157;28;20029;-76
2021/04/22 02:00:17;;;;;;;18.42;9.23;;;;;;;18.24;34.98;102355.63;5074096;28;20024;-76
2021/04/22 02:02:43;;;;;;;16.67;9.38;;;;;;;18.21;35.22;102361.84;5073956;28;20074;-76
2021/04/22 02:05:10;;;;;;;16.77;9.05;;;;;;;18.18;35.16;102370.75;5073996;28;20032;-76
2021/04/22 02:07:36;;;;;;;16.05;9.77;;;;;;;18.13;35.06;102368.16;5073894;28;20458;-76
2021/04/22 02:10:05;;;;;;;13.80;9.52;;;;;;;18.10;35.04;102368.81;5073764;28;20391;-76
2021/04/22 02:12:31;;;;;;;21.42;9.60;;;;;;;18.02;35.07;102369.63;5073824;28;20080;-76
2021/04/22 02:14:57;;;;;;;17.48;9.90;;;;;;;17.96;35.15;102359.84;5073928;28;20039;-76
2021/04/22 02:17:22;;;;;;;18.50;10.15;;;;;;;17.95;35.24;102361.81;5073870;28;20029;-77
2021/04/22 02:19:49;;;;;;;14.50;8.95;;;;;;;17.93;35.01;102366.03;5073758;28;20036;-77
2021/04/22 02:22:14;;;;;;;18.55;9.98;;;;;;;17.88;35.05;102363.41;5073644;28;20044;-77
2021/04/22 02:24:40;;;;;;;16.00;9.32;;;;;;;17.84;35.43;102362.47;5073553;28;20025;-76
2021/04/22 02:27:06;;;;;;;27.65;10.30;;;;;;;17.81;35.36;102363.91;5073209;28;20031;-77
2021/04/22 02:29:32;;;;;;;18.45;9.45;;;;;;;17.86;35.18;102360.16;5072252;28;20062;-76
2021/04/22 02:31:58;;;;;;;16.50;9.68;;;;;;;17.82;35.17;102359.19;5073423;28;20104;-76
2021/04/22 02:34:23;;;;;;;15.98;9.65;;;;;;;17.66;35.30;102365.13;5073402;28;20101;-77
2021/04/22 02:36:49;;;;;;;15.30;9.35;;;;;;;17.70;35.13;102366.16;5073343;28;20029;-76
2021/04/22 02:39:15;;;;;;;21.45;10.15;;;;;;;17.68;35.29;102367.56;5073320;28;20501;-77
2021/04/22 02:41:40;;;;;;;23.48;10.95;;;;;;;17.58;35.29;102371.47;5073221;28;20471;-77
2021/04/22 02:44:06;;;;;;;21.17;10.80;;;;;;;17.54;35.26;102367.72;5073150;28;20387;-76
2021/04/22 02:46:32;;;;;;;28.00;11.80;;;;;;;17.48;35.33;102372.56;5073138;28;20095;-77
2021/04/22 02:48:57;;;;;;;17.42;9.77;;;;;;;17.83;34.32;102369.91;5073067;28;20085;-76
2021/04/22 02:51:23;;;;;;;17.90;9.35;;;;;;;17.87;34.32;102367.31;5073135;28;20112;-77
2021/04/22 02:53:48;;;;;;;19.77;10.20;;;;;;;17.88;34.26;102377.25;5073016;28;20031;-76
2021/04/22 02:56:14;;;;;;;18.95;10.00;;;;;;;17.86;34.05;102374.81;5071666;28;20032;-76
2021/04/22 02:58:40;;;;;;;15.20;8.73;;;;;;;17.84;34.03;102382.63;5072935;28;20394;-76
2021/04/22 03:01:05;;;;;;;32.90;12.68;;;;;;;17.73;34.11;102376.56;5073035;28;20382;-76
2021/04/22 03:03:31;;;;;;;19.90;9.15;;;;;;;17.74;33.88;102375.44;5072821;28;20451;-76
2021/04/22 03:05:57;;;;;;;22.88;10.45;;;;;;;17.67;34.09;102380.56;5072813;28;20032;-77
2021/04/22 03:08:23;;;;;;;16.45;11.02;;;;;;;17.65;34.05;102380.09;5072692;28;20057;-76
2021/04/22 03:10:49;;;;;;;18.05;10.45;;;;;;;17.68;34.22;102385.00;5072788;28;20031;-76
2021/04/22 03:13:15;;;;;;;15.38;11.85;;;;;;;17.70;34.17;102387.44;5072726;28;20040;-77
2021/04/22 03:15:41;;;;;;;25.48;13.88;;;;;;;17.71;34.11;102389.09;5072653;28;20501;-77
2021/04/22 03:18:06;;;;;;;23.70;12.77;;;;;;;17.64;34.06;102384.00;5072632;28;20024;-76
2021/04/22 03:20:32;;;;;;;21.25;10.73;;;;;;;17.62;34.42;102375.22;5072614;28;20436;-76
2021/04/22 03:22:59;;;;;;;23.27;13.88;;;;;;;17.56;34.23;102390.31;5072620;28;20513;-76
2021/04/22 03:25:26;;;;;;;12.48;8.82;;;;;;;17.54;34.21;102389.03;5072599;28;20043;-76
2021/04/22 03:27:52;;;;;;;17.30;11.20;;;;;;;17.54;34.13;102386.25;5071097;28;20563;-76
2021/04/22 03:30:21;;;;;;;22.83;13.90;;;;;;;17.47;34.04;102383.97;5071574;28;20037;-76
2021/04/22 03:32:47;;;;;;;22.70;13.87;;;;;;;17.47;34.03;102390.28;5071914;28;20036;-77
2021/04/22 03:35:13;;;;;;;33.92;15.48;;;;;;;17.48;34.04;102391.91;5072531;28;20029;-76
2021/04/22 03:37:40;;;;;;;20.85;13.02;;;;;;;17.01;34.91;102393.50;5072463;28;20029;-77
2021/04/22 03:40:09;;;;;;;22.95;13.75;;;;;;;17.26;34.31;102389.22;5072182;28;20510;-76
2021/04/22 03:42:35;;;;;;;25.67;16.65;;;;;;;17.39;34.09;102391.06;5072437;28;20060;-77
2021/04/22 03:45:00;;;;;;;29.42;16.23;;;;;;;17.32;34.19;102385.19;5072406;28;20071;-76
2021/04/22 03:47:26;;;;;;;33.53;17.80;;;;;;;17.39;34.06;102381.97;5072382;28;20029;-76
2021/04/22 03:49:52;;;;;;;28.85;16.45;;;;;;;17.39;34.21;102387.50;5072369;28;20463;-76
2021/04/22 03:52:19;;;;;;;32.97;18.33;;;;;;;17.39;34.21;102396.59;5071044;28;20103;-76
2021/04/22 03:54:45;;;;;;;33.00;17.55;;;;;;;17.33;34.53;102392.34;5072358;28;20390;-76
2021/04/22 03:57:10;;;;;;;55.42;19.95;;;;;;;17.40;34.26;102394.66;5072367;28;20031;-76
2021/04/22 03:59:36;;;;;;;32.47;17.60;;;;;;;17.36;34.56;102391.69;5072282;28;20401;-77
2021/04/22 04:02:01;;;;;;;29.77;15.93;;;;;;;17.41;34.27;102390.75;5072243;28;20082;-77
2021/04/22 04:04:27;;;;;;;41.95;18.75;;;;;;;17.42;33.96;102393.19;5071084;28;20047;-76
2021/04/22 04:06:53;;;;;;;65.13;22.00;;;;;;;17.33;34.29;102394.31;5072176;28;20024;-76
2021/04/22 04:09:19;;;;;;;50.30;21.75;;;;;;;17.01;34.86;102389.94;5072066;28;20074;-76
2021/04/22 04:11:44;;;;;;;37.00;19.92;;;;;;;17.05;34.88;102397.25;5072142;28;20033;-76
2021/04/22 04:14:10;;;;;;;51.42;21.40;;;;;;;16.83;34.90;102395.31;5072182;28;20120;-76
2021/04/22 04:16:36;;;;;;;47.35;22.05;;;;;;;16.63;35.47;102388.38;5072076;28;20078;-77
2021/04/22 04:19:02;;;;;;;40.10;21.20;;;;;;;16.56;35.72;102395.44;5072224;28;20024;-76
2021/04/22 04:21:27;;;;;;;43.00;21.58;;;;;;;16.57;35.66;102395.13;5072072;28;20025;-77
2021/04/22 04:23:53;;;;;;;39.25;20.42;;;;;;;16.53;35.95;102396.88;5070814;28;20032;-77
2021/04/22 04:26:18;;;;;;;40.15;21.50;;;;;;;16.47;36.04;102392.59;5071993;28;20021;-76
2021/04/22 04:28:44;;;;;;;84.25;22.90;;;;;;;16.33;36.08;102397.38;5071724;28;20053;-78
2021/04/22 04:31:09;;;;;;;28.92;14.70;;;;;;;16.49;35.90;102395.06;5072009;28;20020;-77
2021/04/22 04:33:35;;;;;;;23.00;14.40;;;;;;;16.47;35.94;102394.53;5061386;28;20071;-77
2021/04/22 04:36:01;;;;;;;23.38;13.77;;;;;;;16.47;35.90;102397.31;5051825;28;20036;-77
2021/04/22 04:38:26;;;;;;;46.33;13.82;;;;;;;16.42;35.75;102395.50;5051659;28;20040;-77
2021/04/22 04:40:52;;;;;;;38.90;14.57;;;;;;;16.31;35.94;102402.38;5051617;28;20021;-77
2021/04/22 04:43:17;;;;;;;24.40;13.77;;;;;;;16.28;36.08;102403.81;5051281;28;20029;-77
2021/04/22 04:45:43;;;;;;;44.90;18.17;;;;;;;16.13;36.29;102408.88;5051786;28;20060;-77
2021/04/22 04:48:09;;;;;;;52.63;15.85;;;;;;;16.02;36.45;102414.63;5051694;28;20028;-76
2021/04/22 04:50:34;;;;;;;50.90;17.40;;;;;;;16.03;36.31;102415.44;5051809;28;20071;-77
2021/04/22 04:53:00;;;;;;;49.78;20.90;;;;;;;15.97;36.28;102413.91;5053891;28;20446;-77
2021/04/22 04:55:25;;;;;;;29.10;17.15;;;;;;;16.09;36.04;102426.03;5055316;28;20039;-76
2021/04/22 04:57:52;;;;;;;26.55;15.23;;;;;;;16.03;36.11;102420.94;5055405;28;20037;-76
2021/04/22 05:00:18;;;;;;;22.77;14.40;;;;;;;16.04;36.00;102419.81;5055177;28;20039;-76
2021/04/22 05:02:45;;;;;;;33.47;14.55;;;;;;;15.96;35.95;102420.56;5053988;28;20106;-76
2021/04/22 05:05:11;;;;;;;21.80;13.93;;;;;;;15.85;36.31;102417.19;5055135;28;20038;-76
2021/04/22 05:07:37;;;;;;;19.58;14.07;;;;;;;15.92;36.11;102422.28;5055202;28;20108;-77
2021/04/22 05:10:04;;;;;;;29.80;13.15;;;;;;;15.78;36.30;102428.63;5053761;28;20060;-76
2021/04/22 05:12:30;;;;;;;28.17;14.00;;;;;;;15.67;36.45;102429.16;5053767;28;20111;-76
2021/04/22 05:14:56;;;;;;;24.17;14.10;;;;;;;15.60;36.53;102432.28;5054978;28;20107;-76
2021/04/22 05:17:21;;;;;;;18.13;13.25;;;;;;;15.57;36.42;102434.81;5054916;28;20033;-77
2021/04/22 05:19:47;;;;;;;22.42;11.45;;;;;;;15.68;36.46;102428.03;5054966;28;20036;-76
2021/04/22 05:22:13;;;;;;;24.17;13.88;;;;;;;15.97;35.54;102431.25;5054800;28;20025;-77
2021/04/22 05:24:39;;;;;;;43.53;15.68;;;;;;;15.93;35.69;102430.25;5054741;28;20029;-76
2021/04/22 05:27:05;;;;;;;29.50;14.30;;;;;;;16.02;35.52;102430.31;5054841;28;20090;-76
2021/04/22 05:29:31;;;;;;;39.30;15.07;;;;;;;15.93;35.75;102435.75;5054335;28;20530;-77
2021/04/22 05:31:56;;;;;;;22.02;13.60;;;;;;;15.99;35.60;102445.56;5054570;28;20056;-77
2021/04/22 05:34:22;;;;;;;20.42;13.13;;;;;;;16.10;35.41;102437.88;5053286;28;20033;-76
2021/04/22 05:36:47;;;;;;;24.10;13.85;;;;;;;15.87;35.99;102448.03;5054805;28;20041;-77
2021/04/22 05:39:13;;;;;;;25.67;14.25;;;;;;;16.06;35.85;102448.72;5054598;28;20029;-76
2021/04/22 05:41:39;;;;;;;26.92;14.45;;;;;;;16.09;35.55;102448.06;5054496;28;20475;-76
2021/04/22 05:44:05;;;;;;;22.33;14.38;;;;;;;16.17;35.45;102446.56;5054369;28;20036;-76
2021/04/22 05:46:32;;;;;;;23.73;14.82;;;;;;;16.15;35.86;102447.97;5054455;28;20119;-76
2021/04/22 05:48:57;;;;;;;24.92;14.60;;;;;;;16.26;35.48;102447.44;5054269;28;20031;-76
2021/04/22 05:51:23;;;;;;;26.48;12.80;;;;;;;16.30;35.18;102453.16;5054299;28;20395;-77
2021/04/22 05:53:49;;;;;;;20.98;12.35;;;;;;;16.21;35.63;102447.56;5054219;28;20029;-77
2021/04/22 05:56:14;;;;;;;23.23;14.45;;;;;;;16.29;35.47;102452.34;5054260;28;20032;-76
2021/04/22 05:58:41;;;;;;;18.63;11.43;;;;;;;16.28;35.59;102449.91;5054074;28;20028;-76
2021/04/22 06:01:06;;;;;;;18.48;11.10;;;;;;;16.38;35.40;102453.22;5054235;28;20036;-76
2021/04/22 06:03:32;;;;;;;13.63;10.55;;;;;;;16.49;35.26;102456.59;5053897;28;20383;-76
2021/04/22 06:05:57;;;;;;;16.83;11.88;;;;;;;16.52;35.42;102446.84;5052817;28;20048;-77
2021/04/22 06:08:23;;;;;;;13.77;10.10;;;;;;;16.50;35.46;102454.66;5053910;28;20021;-76
2021/04/22 06:10:49;;;;;;;18.15;11.40;;;;;;;16.53;35.26;102460.34;5053870;28;20143;-76
2021/04/22 06:13:15;;;;;;;24.75;13.27;;;;;;;16.56;35.55;102458.91;5054005;28;20104;-76
2021/04/22 06:15:41;;;;;;;25.02;12.88;;;;;;;16.55;35.72;102458.09;5052605;28;20064;-76
2021/04/22 06:18:08;;;;;;;21.65;12.52;;;;;;;16.67;35.71;102463.06;5053734;28;20134;-76
2021/04/22 06:20:33;;;;;;;27.02;12.90;;;;;;;16.70;36.20;102461.63;5053758;28;20116;-77
2021/04/22 06:22:59;;;;;;;16.35;10.63;;;;;;;16.88;35.59;102471.69;5053699;28;20112;-77
2021/04/22 06:25:25;;;;;;;26.17;12.15;;;;;;;16.73;36.22;102477.59;5053626;28;20029;-76
2021/04/22 06:27:52;;;;;;;26.55;12.80;;;;;;;17.02;35.75;102469.69;5053324;28;20053;-76
2021/04/22 06:30:18;;;;;;;19.88;11.80;;;;;;;17.03;36.28;102474.06;5053699;28;20029;-76
2021/04/22 06:32:45;;;;;;;16.98;9.93;;;;;;;17.24;35.73;102474.38;5053437;28;20478;-76
2021/04/22 06:35:12;;;;;;;24.08;11.13;;;;;;;17.17;36.05;102480.34;5053496;28;20025;-81
2021/04/22 06:37:38;;;;;;;22.23;11.27;;;;;;;17.27;35.96;102482.03;5053490;28;20029;-79
2021/04/22 06:40:11;;;;;;;21.77;11.25;;;;;;;17.40;35.95;102483.06;5053491;28;20427;-85
2021/04/22 06:42:38;;;;;;;32.03;15.15;;;;;;;17.54;36.03;102491.28;5052228;28;20040;-81
2021/04/22 06:45:05;;;;;;;24.83;14.05;;;;;;;17.70;36.23;102492.47;5052094;28;20029;-82
2021/04/22 06:47:30;;;;;;;22.83;13.57;;;;;;;17.90;36.38;102488.34;5053455;28;20487;-77
2021/04/22 06:49:56;;;;;;;21.58;14.02;;;;;;;18.25;35.88;102486.50;5053099;28;20033;-77
2021/04/22 06:52:22;;;;;;;27.52;16.58;;;;;;;18.20;36.39;102489.41;5053119;28;20033;-77
2021/04/22 06:54:47;;;;;;;24.75;15.23;;;;;;;18.34;36.65;102479.00;5053207;28;20025;-77
2021/04/22 06:57:14;;;;;;;29.52;15.57;;;;;;;18.55;36.82;102493.03;5053205;28;20028;-82
2021/04/22 06:59:41;;;;;;;25.63;14.80;;;;;;;18.65;37.37;102495.47;5053057;28;20033;-78
2021/04/22 07:02:07;;;;;;;35.28;15.52;;;;;;;19.13;36.87;102494.50;5053325;28;20031;-80
2021/04/22 07:04:33;;;;;;;29.17;15.10;;;;;;;19.40;37.04;102499.63;5052883;28;20494;-77
2021/04/22 07:06:58;;;;;;;30.10;14.70;;;;;;;19.58;37.38;102494.91;5052898;28;20029;-83
2021/04/22 07:09:25;;;;;;;38.65;14.90;;;;;;;19.72;38.28;102507.72;5051535;28;20037;-77
2021/04/22 07:11:51;;;;;;;46.08;13.57;;;;;;;19.79;38.61;102506.06;5052683;28;20460;-78
2021/04/22 07:14:16;;;;;;;24.92;11.20;;;;;;;20.07;38.71;102506.41;5051434;28;20025;-83
2021/04/22 07:16:42;;;;;;;30.88;13.82;;;;;;;20.24;38.74;102508.25;5052494;28;20150;-78
2021/04/22 07:19:08;;;;;;;28.15;14.10;;;;;;;20.38;38.88;102516.34;5052734;28;20457;-79
2021/04/22 07:21:34;;;;;;;31.02;11.73;;;;;;;20.35;38.90;102515.06;5052657;28;20078;-78
2021/04/22 07:23:59;;;;;;;22.05;10.10;;;;;;;20.61;38.61;102514.91;5052756;28;20036;-84
2021/04/22 07:26:25;;;;;;;28.08;11.27;;;;;;;20.41;39.20;102515.69;5052602;28;20476;-78
2021/04/22 07:28:51;;;;;;;25.05;10.63;;;;;;;20.72;38.44;102512.53;5052424;28;20458;-78
2021/04/22 07:31:17;;;;;;;35.78;11.93;;;;;;;20.71;38.76;102520.06;5052600;28;20044;-79
2021/04/22 07:33:43;;;;;;;27.73;11.07;;;;;;;20.78;38.71;102520.34;5051209;28;20044;-82
2021/04/22 07:36:10;;;;;;;29.02;11.18;;;;;;;20.84;38.53;102522.88;5052446;28;20479;-79
2021/04/22 07:38:35;;;;;;;22.60;10.35;;;;;;;20.95;38.13;102511.03;5052531;28;20087;-78
2021/04/22 07:41:01;;;;;;;30.42;10.68;;;;;;;20.86;38.25;102515.03;5063238;28;20434;-78
2021/04/22 07:43:27;;;;;;;29.05;11.10;;;;;;;21.09;37.72;102507.16;5071560;28;20028;-79
2021/04/22 07:45:52;;;;;;;23.15;9.90;;;;;;;20.99;37.91;102519.47;5071473;28;20387;-81
2021/04/22 07:48:18;;;;;;;15.27;8.98;;;;;;;21.18;37.43;102517.00;5071424;28;20028;-79
2021/04/22 07:50:43;;;;;;;26.27;9.77;;;;;;;21.08;37.56;102509.09;5071571;28;20060;-77
2021/04/22 07:53:10;;;;;;;37.08;12.20;;;;;;;21.39;36.98;102519.78;5071683;28;20033;-79
2021/04/22 07:55:44;;;;;;;29.35;10.48;;;;;;;21.48;36.88;102514.13;5070163;28;20413;-84
2021/04/22 07:58:11;;;;;;;25.13;9.77;;;;;;;21.86;36.16;102522.97;5068838;28;20025;-84
2021/04/22 08:00:38;;;;;;;32.85;13.50;;;;;;;21.62;36.66;102519.34;5053943;28;20395;-83
2021/04/22 08:03:04;;;;;;;20.05;9.13;;;;;;;21.76;36.34;102512.28;5069198;28;20474;-84
2021/04/22 08:05:35;;;;;;;22.85;10.30;;;;;;;21.95;35.98;102528.41;5072107;28;20039;-84
2021/04/22 08:08:00;;;;;;;27.23;10.38;;;;;;;22.11;35.65;102526.59;5071889;28;20040;-81
2021/04/22 08:10:29;;;;;;;32.47;10.80;;;;;;;21.86;36.00;102519.38;5072001;28;20028;-82
2021/04/22 08:12:55;;;;;;;22.13;10.05;;;;;;;21.97;35.58;102530.84;5072121;28;20051;-83
2021/04/22 08:15:21;;;;;;;20.08;9.50;;;;;;;22.11;35.13;102526.59;5071373;28;20032;-84
2021/04/22 08:17:47;;;;;;;17.55;9.27;;;;;;;22.26;34.72;102532.59;5070112;28;20051;-84
2021/04/22 08:20:19;;;;;;;19.98;9.63;;;;;;;22.29;33.88;102527.16;5071280;28;20550;-79
2021/04/22 08:22:45;;;;;;;22.85;8.35;;;;;;;21.98;34.65;102527.72;5071289;28;20033;-79
2021/04/22 08:25:19;;;;;;;23.88;9.18;;;;;;;22.39;33.91;102532.25;5070197;28;20127;-84
2021/04/22 08:27:47;;;;;;;24.48;8.48;;;;;;;22.38;34.09;102527.84;5071120;28;20402;-85
2021/04/22 08:30:16;;;;;;;24.48;9.77;;;;;;;22.51;34.15;102528.59;5074739;28;20115;-80
2021/04/22 08:32:42;;;;;;;28.80;10.38;;;;;;;22.50;33.99;102521.41;5074876;28;20519;-84
2021/04/22 08:35:08;;;;;;;24.33;9.32;;;;;;;22.89;33.67;102522.59;5074967;28;20027;-84
2021/04/22 08:37:36;;;;;;;22.33;8.93;;;;;;;22.61;34.08;102525.34;5074857;28;20025;-84
2021/04/22 08:40:07;;;;;;;33.03;11.23;;;;;;;23.04;33.25;102528.59;5074826;28;20066;-78
2021/04/22 08:42:33;;;;;;;28.77;10.52;;;;;;;23.44;32.71;102534.09;5074719;28;20020;-84
2021/04/22 08:45:00;;;;;;;24.88;8.73;;;;;;;23.18;33.44;102529.78;5074730;28;20700;-79
2021/04/22 08:47:28;;;;;;;22.98;9.40;;;;;;;23.00;33.50;102539.66;5073692;28;20027;-84
2021/04/22 08:49:55;;;;;;;24.48;9.85;;;;;;;23.43;32.88;102530.50;5075483;28;20043;-85
2021/04/22 08:52:21;;;;;;;18.08;8.85;;;;;;;23.07;33.16;102528.72;5075400;28;20025;-80
2021/04/22 08:54:47;;;;;;;21.58;9.30;;;;;;;23.23;32.81;102535.13;5073726;28;20031;-84
2021/04/22 08:57:12;;;;;;;23.65;9.75;;;;;;;23.44;32.69;102537.69;5074325;28;20035;-85
2021/04/22 08:59:38;;;;;;;23.55;8.93;;;;;;;23.46;32.41;102535.34;5074448;28;20115;-81
2021/04/22 09:02:04;;;;;;;22.88;9.43;;;;;;;23.28;32.76;102533.25;5072729;28;20029;-81
2021/04/22 09:04:29;;;;;;;23.92;9.63;;;;;;;23.41;32.83;102529.22;5072630;28;20040;-85
2021/04/22 09:06:55;;;;;;;18.23;8.70;;;;;;;23.58;32.49;102531.69;5073994;28;20028;-82
2021/04/22 09:09:20;;;;;;;19.88;9.05;;;;;;;23.61;32.20;102530.97;5073996;28;20051;-82
2021/04/22 09:11:47;;;;;;;28.30;9.65;;;;;;;22.98;33.41;102537.22;5073424;28;20065;-80
2021/04/22 09:14:19;;;;;;;17.65;8.00;;;;;;;23.09;33.13;102545.06;5073773;28;20478;-81
2021/04/22 09:16:45;;;;;;;14.60;8.65;;;;;;;23.57;31.83;102541.19;5071984;28;20028;-79
2021/04/22 09:19:14;;;;;;;17.85;8.30;;;;;;;23.73;31.65;102539.28;5073821;28;20475;-81
2021/04/22 09:21:44;;;;;;;14.83;8.73;;;;;;;23.65;32.01;102540.25;5071143;28;20094;-82
2021/04/22 09:24:14;;;;;;;19.17;10.43;;;;;;;23.34;32.23;102540.97;5073758;28;20039;-80
2021/04/22 09:26:53;;;;;;;13.85;8.40;;;;;;;23.34;32.26;102532.63;5071397;28;20418;-80
2021/04/22 09:29:39;;;;;;;18.17;8.40;;;;;;;23.37;32.33;102533.91;5068481;28;20401;-80
2021/04/22 09:32:32;;;;;;;26.30;9.25;;;;;;;23.42;31.88;102537.22;5072176;28;20318;-85
2021/04/22 09:35:09;;;;;;;19.98;7.20;;;;;;;23.60;32.16;102537.72;5072396;28;20024;-79
2021/04/22 09:37:49;;;;;;;25.13;8.48;;;;;;;23.64;32.04;102541.41;5040546;28;20046;-79
2021/04/22 09:40:19;;;;;;;30.77;9.73;;;;;;;23.69;31.74;102540.34;5063218;28;20037;-81
2021/04/22 09:42:48;;;;;;;22.80;7.28;;;;;;;23.15;32.43;102538.88;5070827;28;20391;-85
2021/04/22 09:45:17;;;;;;;18.80;7.65;;;;;;;23.10;32.48;102544.72;5073740;28;20070;-86
2021/04/22 09:47:44;;;;;;;20.65;7.75;;;;;;;23.29;32.39;102546.03;5098147;28;20029;-85
2021/04/22 09:50:14;;;;;;;20.42;8.13;;;;;;;22.93;33.06;102547.81;5072519;28;20032;-79
2021/04/22 09:52:43;;;;;;;15.85;8.43;;;;;;;23.08;32.58;102546.25;5071657;28;20116;-84
2021/04/22 09:55:18;;;;;;;17.83;7.60;;;;;;;22.99;32.52;102546.41;5072432;28;20471;-79
2021/04/22 09:57:44;;;;;;;21.63;8.40;;;;;;;23.20;32.14;102544.22;5069374;28;20032;-82
2021/04/22 10:00:17;;;;;;;24.55;8.07;;;;;;;23.32;31.96;102553.69;5072074;28;20029;-84
2021/04/22 10:02:46;;;;;;;21.45;7.53;;;;;;;23.06;32.26;102548.59;5055884;28;20482;-86
2021/04/22 10:05:28;;;;;;;15.67;7.73;;;;;;;23.01;31.86;102552.41;5070442;28;20033;-78
2021/04/22 10:08:13;;;;;;;14.48;6.65;;;;;;;22.89;32.00;102546.88;5071674;28;20052;-79
2021/04/22 10:10:55;;;;;;;18.05;7.28;;;;;;;23.05;31.84;102550.56;5071945;28;20526;-86
2021/04/22 10:13:21;;;;;;;16.88;6.97;;;;;;;23.56;30.79;102544.34;5056516;28;20069;-81
2021/04/22 10:15:53;;;;;;;20.48;7.85;;;;;;;23.76;30.42;102555.28;5070992;28;20060;-83
2021/04/22 10:18:19;;;;;;;14.38;5.90;;;;;;;23.70;30.31;102548.34;5073627;28;20032;-79
2021/04/22 10:20:44;;;;;;;22.38;7.63;;;;;;;23.90;30.16;102549.25;5072383;28;20028;-80
2021/04/22 10:23:12;;;;;;;11.93;6.50;;;;;;;23.99;29.89;102557.44;5070869;28;20497;-83
2021/04/22 10:25:43;;;;;;;16.30;6.75;;;;;;;23.64;30.20;102555.38;5072197;28;20025;-79
2021/04/22 10:28:11;;;;;;;22.58;8.70;;;;;;;23.85;30.57;102551.50;5072088;28;20045;-85
2021/04/22 10:30:39;;;;;;;18.75;7.43;;;;;;;23.99;30.33;102555.47;5072310;28;20036;-84
2021/04/22 10:33:06;;;;;;;19.98;6.35;;;;;;;23.97;30.17;102554.22;5071658;28;20441;-79
2021/04/22 10:35:36;;;;;;;19.20;7.00;;;;;;;24.12;30.36;102553.41;5055282;28;20040;-86
2021/04/22 10:38:03;;;;;;;13.90;6.43;;;;;;;24.02;30.44;102548.34;5072527;28;20031;-79
2021/04/22 10:40:35;;;;;;;20.95;7.90;;;;;;;23.67;30.89;102554.66;5071039;28;20036;-82
2021/04/22 10:43:04;;;;;;;19.95;6.45;;;;;;;23.92;30.05;102551.69;5072647;28;20025;-81
2021/04/22 10:45:31;;;;;;;16.38;7.10;;;;;;;24.04;30.00;102554.41;5073327;28;20021;-87
2021/04/22 10:47:56;;;;;;;16.45;7.50;;;;;;;24.15;29.83;102558.25;5070315;28;20033;-83
2021/04/22 10:50:33;;;;;;;19.15;7.22;;;;;;;24.17;29.85;102561.47;5071511;28;20356;-85
2021/04/22 10:53:02;;;;;;;19.83;8.18;;;;;;;24.30;29.55;102565.78;5071863;28;20021;-81
2021/04/22 10:55:30;;;;;;;17.58;7.30;;;;;;;24.77;29.19;102570.47;5069707;28;20024;-86
2021/04/22 10:58:20;;;;;;;18.40;7.50;;;;;;;24.13;30.27;102563.38;5070475;28;20162;-80
2021/04/22 11:00:48;;;;;;;;;;;;;;;24.35;29.81;102567.53;5070554;28;20544;-81
2021/04/22 11:03:35;;;;;;;18.33;7.22;;;;;;;24.33;29.60;102562.31;5054084;28;19920;-86
2021/04/22 11:06:21;;;;;;;47.72;10.85;;;;;;;24.05;30.08;102568.00;5071223;28;20020;-82
2021/04/22 11:08:52;;;;;;;20.58;6.53;;;;;;;23.90;29.88;102565.22;5053547;28;20471;-83
2021/04/22 11:11:25;;;;;;;15.23;6.53;;;;;;;24.01;29.95;102566.28;5069318;28;20025;-84
2021/04/22 11:14:14;;;;;;;15.18;6.30;;;;;;;24.37;29.29;102572.75;5071734;28;20028;-81
2021/04/22 11:17:02;;;;;;;18.00;6.75;;;;;;;24.33;29.32;102567.91;5070417;28;20024;-82